createdAt,value
2023-05-18T00:01:57.649Z,98759.09
2023-05-18T00:04:02.095Z,98752.06
2023-05-18T00:06:07.449Z,98753.72
2023-05-18T00:08:10.563Z,98755.34
2023-05-18T00:10:13.958Z,98757.88
2023-05-18T00:12:17.271Z,98750.13
2023-05-18T00:14:20.926Z,98750.28
2023-05-18T00:16:25.495Z,98746.16
2023-05-18T00:18:28.761Z,98738.50
2023-05-18T00:20:31.912Z,98746.41
2023-05-18T00:22:35.052Z,98746.41
2023-05-18T00:24:38.222Z,98751.59
2023-05-18T00:26:55.147Z,98735.47
2023-05-18T00:29:06.689Z,98738.16
2023-05-18T00:31:30.398Z,98735.56
2023-05-18T00:33:50.035Z,98731.56
2023-05-18T00:36:03.472Z,98742.81
2023-05-18T00:38:12.059Z,98749.75
2023-05-18T00:40:15.166Z,98746.34
2023-05-18T00:42:21.016Z,98745.66
2023-05-18T00:44:24.266Z,98743.06
2023-05-18T00:46:29.561Z,98737.00
2023-05-18T00:48:32.761Z,98744.13
2023-05-18T00:50:36.325Z,98743.28
2023-05-18T00:52:39.791Z,98744.94
2023-05-18T00:54:43.708Z,98744.03
2023-05-18T00:56:48.290Z,98747.41
2023-05-18T00:58:55.524Z,98741.28
2023-05-18T01:00:58.898Z,98739.59
2023-05-18T01:03:03.571Z,98739.66
2023-05-18T01:05:07.397Z,98740.63
2023-05-18T01:07:12.925Z,98736.25
2023-05-18T01:09:16.331Z,98739.59
2023-05-18T01:11:27.216Z,98733.50
2023-05-18T01:13:36.002Z,98741.97
2023-05-18T01:15:40.509Z,98739.13
2023-05-18T01:18:15.305Z,98739.69
2023-05-18T01:20:33.581Z,98739.53
2023-05-18T01:22:50.542Z,98743.72
2023-05-18T01:24:59.370Z,98739.28
2023-05-18T01:27:07.302Z,98739.97
2023-05-18T01:29:11.465Z,98735.53
2023-05-18T01:31:16.088Z,98727.63
2023-05-18T01:33:19.712Z,98728.59
2023-05-18T01:35:22.883Z,98735.38
2023-05-18T01:37:26.964Z,98728.50
2023-05-18T01:39:30.168Z,98732.84
2023-05-18T01:41:36.774Z,98731.03
2023-05-18T01:43:47.012Z,98735.28
2023-05-18T01:45:52.771Z,98736.91
2023-05-18T01:48:00.315Z,98738.63
2023-05-18T01:50:05.283Z,98742.84
2023-05-18T01:52:11.637Z,98731.53
2023-05-18T01:54:17.800Z,98731.47
2023-05-18T01:56:21.856Z,98735.88
2023-05-18T01:58:25.442Z,98732.38
2023-05-18T02:00:30.397Z,98722.88
2023-05-18T02:02:35.128Z,98728.44
2023-05-18T02:04:39.013Z,98731.78
2023-05-18T02:06:42.482Z,98733.00
2023-05-18T02:08:45.853Z,98726.88
2023-05-18T02:10:49.204Z,98726.88
2023-05-18T02:12:53.903Z,98732.31
2023-05-18T02:14:58.492Z,98726.59
2023-05-18T02:17:03.092Z,98728.19
2023-05-18T02:19:06.478Z,98727.19
2023-05-18T02:21:10.102Z,98717.88
2023-05-18T02:23:15.938Z,98728.09
2023-05-18T02:25:19.301Z,98718.72
2023-05-18T02:27:22.975Z,98725.00
2023-05-18T02:29:26.196Z,98722.06
2023-05-18T02:31:31.072Z,98714.44
2023-05-18T02:33:39.853Z,98713.59
2023-05-18T02:35:42.016Z,98718.19
2023-05-18T02:37:45.639Z,98723.53
2023-05-18T02:39:49.132Z,98717.59
2023-05-18T02:41:52.280Z,98709.25
2023-05-18T02:43:56.084Z,98713.59
2023-05-18T02:45:59.681Z,98712.91
2023-05-18T02:48:04.105Z,98712.09
2023-05-18T02:50:09.603Z,98721.75
2023-05-18T02:52:12.849Z,98718.44
2023-05-18T02:54:16.289Z,98701.16
2023-05-18T02:56:20.298Z,98715.97
2023-05-18T02:58:32.155Z,98703.78
2023-05-18T03:00:50.225Z,98705.50
2023-05-18T03:02:53.867Z,98697.78
2023-05-18T03:04:57.478Z,98705.34
2023-05-18T03:07:02.882Z,98699.41
2023-05-18T03:09:06.195Z,98708.81
2023-05-18T03:11:15.056Z,98701.03
2023-05-18T03:13:19.701Z,98702.84
2023-05-18T03:15:23.192Z,98710.41
2023-05-18T03:17:26.420Z,98702.44
2023-05-18T03:19:29.578Z,98700.84
2023-05-18T03:21:36.201Z,98707.72
2023-05-18T03:23:41.112Z,98705.03
2023-05-18T03:25:44.832Z,98699.03
2023-05-18T03:27:48.323Z,98700.69
2023-05-18T03:29:53.127Z,98696.66
2023-05-18T03:31:56.198Z,98702.06
2023-05-18T03:33:59.494Z,98705.50
2023-05-18T03:36:04.846Z,98708.09
2023-05-18T03:38:08.734Z,98709.06
2023-05-18T03:40:17.151Z,98712.25
2023-05-18T03:42:21.717Z,98713.00
2023-05-18T03:44:24.916Z,98710.56
2023-05-18T03:46:28.301Z,98714.91
2023-05-18T03:48:31.868Z,98721.88
2023-05-18T03:50:35.207Z,98707.03
2023-05-18T03:52:41.620Z,98706.97
2023-05-18T03:54:45.172Z,98707.88
2023-05-18T03:56:49.767Z,98714.84
2023-05-18T03:58:53.488Z,98710.31
2023-05-18T04:00:57.234Z,98708.56
2023-05-18T04:03:03.392Z,98704.22
2023-05-18T04:05:08.158Z,98713.59
2023-05-18T04:07:11.803Z,98701.78
2023-05-18T04:09:17.326Z,98707.56
2023-05-18T04:11:21.469Z,98704.91
2023-05-18T04:13:25.987Z,98709.84
2023-05-18T04:15:29.421Z,98714.38
2023-05-18T04:17:34.042Z,98708.16
2023-05-18T04:19:37.981Z,98719.19
2023-05-18T04:21:43.763Z,98721.78
2023-05-18T04:23:47.278Z,98714.50
2023-05-18T04:25:50.510Z,98730.13
2023-05-18T04:27:54.498Z,98718.03
2023-05-18T04:30:00.162Z,98726.59
2023-05-18T04:32:03.390Z,98722.91
2023-05-18T04:34:07.014Z,98739.91
2023-05-18T04:36:10.387Z,98735.44
2023-05-18T04:38:14.993Z,98736.22
2023-05-18T04:40:18.559Z,98732.59
2023-05-18T04:42:23.650Z,98729.69
2023-05-18T04:44:27.802Z,98735.47
2023-05-18T04:46:34.907Z,98732.97
2023-05-18T04:48:38.961Z,98736.25
2023-05-18T04:50:42.059Z,98737.59
2023-05-18T04:52:48.735Z,98744.50
2023-05-18T04:54:53.705Z,98744.84
2023-05-18T04:56:56.774Z,98737.81
2023-05-18T04:59:00.152Z,98742.72
2023-05-18T05:01:06.905Z,98743.63
2023-05-18T05:03:11.662Z,98736.41
2023-05-18T05:05:14.832Z,98745.56
2023-05-18T05:07:18.053Z,98751.19
2023-05-18T05:09:22.810Z,98739.78
2023-05-18T05:11:25.990Z,98745.09
2023-05-18T05:13:29.175Z,98740.63
2023-05-18T05:15:34.389Z,98742.72
2023-05-18T05:17:37.610Z,98747.44
2023-05-18T05:19:45.560Z,98737.03
2023-05-18T05:21:48.890Z,98743.31
2023-05-18T05:23:52.120Z,98735.25
2023-05-18T05:25:55.391Z,98743.38
2023-05-18T05:27:58.441Z,98740.63
2023-05-18T05:30:01.912Z,98725.69
2023-05-18T05:32:06.643Z,98741.22
2023-05-18T05:34:11.723Z,98744.69
2023-05-18T05:36:17.022Z,98745.50
2023-05-18T05:38:21.623Z,98751.34
2023-05-18T05:40:24.767Z,98755.31
2023-05-18T05:42:30.119Z,98752.78
2023-05-18T05:44:33.707Z,98753.38
2023-05-18T05:46:53.825Z,98752.34
2023-05-18T05:49:44.858Z,98768.84
2023-05-18T05:51:49.982Z,98770.78
2023-05-18T05:53:54.665Z,98784.16
2023-05-18T05:55:57.971Z,98775.41
2023-05-18T05:58:01.067Z,98781.44
2023-05-18T06:00:05.912Z,98789.22
2023-05-18T06:06:00.195Z,98770.75
2023-05-18T06:08:06.705Z,98772.22
2023-05-18T06:10:10.198Z,98776.88
2023-05-18T06:12:13.618Z,98783.72
2023-05-18T06:14:17.150Z,98785.84
2023-05-18T06:16:20.823Z,98783.88
2023-05-18T06:18:25.528Z,98785.53
2023-05-18T06:20:38.805Z,98790.16
2023-05-18T06:22:42.398Z,98778.84
2023-05-18T06:25:08.448Z,98793.13
2023-05-18T06:27:28.618Z,98797.34
2023-05-18T06:29:46.466Z,98794.50
2023-05-18T06:32:00.221Z,98798.16
2023-05-18T06:34:18.415Z,98796.06
2023-05-18T06:36:21.644Z,98799.22
2023-05-18T06:38:25.017Z,98808.22
2023-05-18T06:40:30.584Z,98801.47
2023-05-18T06:42:35.101Z,98807.47
2023-05-18T06:44:59.424Z,98784.28
2023-05-18T06:47:48.660Z,98794.13
2023-05-18T06:49:51.983Z,98796.88
2023-05-18T06:51:55.262Z,98797.41
2023-05-18T06:53:58.501Z,98803.91
2023-05-18T06:56:04.989Z,98806.75
2023-05-18T06:58:08.981Z,98809.38
2023-05-18T07:00:13.940Z,98800.06
2023-05-18T07:02:17.140Z,98803.78
2023-05-18T07:04:20.314Z,98830.56
2023-05-18T07:06:23.510Z,98818.31
2023-05-18T07:08:26.624Z,98816.88
2023-05-18T07:10:30.725Z,98811.63
2023-05-18T07:12:35.221Z,98812.75
2023-05-18T07:14:38.462Z,98816.56
2023-05-18T07:16:41.655Z,98819.09
2023-05-18T07:18:44.972Z,98813.38
2023-05-18T07:20:48.211Z,98829.41
2023-05-18T07:22:51.515Z,98830.97
2023-05-18T07:24:54.637Z,98827.72
2023-05-18T07:27:00.041Z,98831.88
2023-05-18T07:29:05.448Z,98829.25
2023-05-18T07:31:08.628Z,98825.13
2023-05-18T07:33:11.857Z,98824.69
2023-05-18T07:35:16.786Z,98829.81
2023-05-18T07:37:20.023Z,98822.91
2023-05-18T07:39:28.548Z,98833.97
2023-05-18T07:41:32.292Z,98831.91
2023-05-18T07:43:37.555Z,98833.72
2023-05-18T07:45:42.060Z,98826.19
2023-05-18T07:47:46.484Z,98827.94
2023-05-18T07:49:49.815Z,98818.56
2023-05-18T07:51:53.516Z,98821.38
2023-05-18T07:53:56.708Z,98821.00
2023-05-18T07:56:00.273Z,98830.19
2023-05-18T07:58:03.488Z,98821.94
2023-05-18T08:00:10.249Z,98822.66
2023-05-18T08:02:19.919Z,98818.59
2023-05-18T08:04:23.143Z,98805.03
2023-05-18T08:06:26.328Z,98811.56
2023-05-18T08:08:30.036Z,98807.19
2023-05-18T08:10:33.153Z,98805.06
2023-05-18T08:12:36.338Z,98812.22
2023-05-18T08:14:39.501Z,98807.13
2023-05-18T08:16:42.639Z,98811.88
2023-05-18T08:18:47.122Z,98807.81
2023-05-18T08:20:53.876Z,98805.78
2023-05-18T08:22:56.972Z,98806.94
2023-05-18T08:25:00.964Z,98815.84
2023-05-18T08:27:04.454Z,98800.81
2023-05-18T08:29:10.131Z,98801.22
2023-05-18T08:31:13.590Z,98803.47
2023-05-18T08:33:16.708Z,98795.53
2023-05-18T08:35:21.298Z,98788.28
2023-05-18T08:37:29.606Z,98795.28
2023-05-18T08:39:33.874Z,98794.72
2023-05-18T08:41:40.378Z,98798.34
2023-05-18T08:43:47.230Z,98797.59
2023-05-18T08:45:53.868Z,98796.41
2023-05-18T08:47:58.154Z,98778.88
2023-05-18T08:50:04.339Z,98777.56
2023-05-18T08:52:10.005Z,98766.00
2023-05-18T08:54:13.260Z,98769.91
2023-05-18T08:56:16.671Z,98777.44
2023-05-18T08:58:21.780Z,98769.50
2023-05-18T09:00:25.334Z,98762.97
2023-05-18T09:02:28.710Z,98758.91
2023-05-18T09:04:34.735Z,98747.50
2023-05-18T09:06:38.635Z,98761.41
2023-05-18T09:08:43.623Z,98743.31
2023-05-18T09:10:50.184Z,98755.56
2023-05-18T09:12:53.669Z,98759.63
2023-05-18T09:14:57.149Z,98755.84
2023-05-18T09:17:00.495Z,98748.59
2023-05-18T09:19:03.588Z,98752.78
2023-05-18T09:21:06.976Z,98758.22
2023-05-18T09:23:12.006Z,98762.53
2023-05-18T09:25:17.839Z,98757.38
2023-05-18T09:27:21.728Z,98748.44
2023-05-18T09:29:25.249Z,98755.84
2023-05-18T09:31:28.563Z,98748.34
2023-05-18T09:33:37.514Z,98747.25
2023-05-18T09:35:42.564Z,98753.09
2023-05-18T09:37:45.672Z,98753.94
2023-05-18T09:39:59.988Z,98756.72
2023-05-18T09:42:06.112Z,98755.63
2023-05-18T09:44:10.117Z,98755.56
2023-05-18T09:46:14.225Z,98760.16
2023-05-18T09:48:18.081Z,98754.59
2023-05-18T09:50:21.946Z,98751.56
2023-05-18T09:52:25.236Z,98751.53
2023-05-18T09:54:28.449Z,98751.13
2023-05-18T09:56:31.749Z,98741.81
2023-05-18T09:58:36.589Z,98737.50
2023-05-18T10:00:42.757Z,98737.25
2023-05-18T10:02:48.981Z,98725.81
2023-05-18T10:04:52.421Z,98723.19
2023-05-18T10:06:55.771Z,98725.69
2023-05-18T10:08:59.432Z,98725.78
2023-05-18T10:11:02.847Z,98724.69
2023-05-18T10:13:05.996Z,98717.59
2023-05-18T10:15:14.563Z,98721.63
2023-05-18T10:17:18.035Z,98711.38
2023-05-18T10:19:21.709Z,98716.53
2023-05-18T10:21:26.013Z,98721.09
2023-05-18T10:23:38.469Z,98711.38
2023-05-18T10:25:43.915Z,98710.81
2023-05-18T10:27:49.012Z,98708.84
2023-05-18T10:29:52.744Z,98711.09
2023-05-18T10:32:06.104Z,98711.19
2023-05-18T10:34:11.686Z,98701.31
2023-05-18T10:36:14.747Z,98707.19
2023-05-18T10:38:22.182Z,98703.84
2023-05-18T10:40:25.809Z,98705.78
2023-05-18T10:42:31.284Z,98701.47
2023-05-18T10:44:34.376Z,98706.63
2023-05-18T10:46:38.434Z,98706.63
2023-05-18T10:48:43.909Z,98700.09
2023-05-18T10:50:49.466Z,98695.63
2023-05-18T10:52:53.239Z,98700.63
2023-05-18T10:54:56.422Z,98698.53
2023-05-18T10:56:59.603Z,98699.00
2023-05-18T10:59:02.816Z,98709.28
2023-05-18T11:01:09.259Z,98693.00
2023-05-18T11:03:14.446Z,98706.19
2023-05-18T11:05:24.956Z,98693.53
2023-05-18T11:07:30.557Z,98693.84
2023-05-18T11:09:34.744Z,98696.19
2023-05-18T11:11:54.173Z,98695.75
2023-05-18T11:14:02.160Z,98698.00
2023-05-18T11:16:06.887Z,98698.16
2023-05-18T11:18:16.577Z,98688.81
2023-05-18T11:20:26.768Z,98691.63
2023-05-18T11:22:42.455Z,98686.47
2023-05-18T11:24:45.467Z,98692.03
2023-05-18T11:26:49.373Z,98685.34
2023-05-18T11:28:53.731Z,98681.03
2023-05-18T11:30:57.128Z,98672.94
2023-05-18T11:33:09.844Z,98679.38
2023-05-18T11:35:25.710Z,98678.09
2023-05-18T11:37:50.823Z,98677.13
2023-05-18T11:40:00.110Z,98674.34
2023-05-18T11:42:07.900Z,98681.31
2023-05-18T11:44:18.639Z,98675.47
2023-05-18T11:46:22.635Z,98678.94
2023-05-18T11:48:29.983Z,98669.63
2023-05-18T11:50:34.645Z,98671.44
2023-05-18T11:52:47.017Z,98664.09
2023-05-18T11:54:52.860Z,98671.97
2023-05-18T11:56:56.735Z,98668.09
2023-05-18T11:59:15.997Z,98666.56
2023-05-18T12:01:19.366Z,98674.63
2023-05-18T12:03:24.981Z,98672.69
2023-05-18T12:05:31.753Z,98675.44
2023-05-18T12:07:37.135Z,98664.03
2023-05-18T12:09:42.718Z,98656.81
2023-05-18T12:11:45.731Z,98662.22
2023-05-18T12:13:50.323Z,98663.25
2023-05-18T12:15:58.226Z,98658.94
2023-05-18T12:18:02.266Z,98665.47
2023-05-18T12:20:05.950Z,98661.53
2023-05-18T12:22:10.032Z,98649.00
2023-05-18T12:24:14.485Z,98649.88
2023-05-18T12:26:20.582Z,98655.97
2023-05-18T12:28:26.879Z,98655.28
2023-05-18T12:30:36.070Z,98652.38
2023-05-18T12:32:40.778Z,98641.22
2023-05-18T12:34:45.519Z,98637.78
2023-05-18T12:36:54.417Z,98647.22
2023-05-18T12:38:57.428Z,98642.16
2023-05-18T12:41:03.880Z,98639.53
2023-05-18T12:43:07.465Z,98652.31
2023-05-18T12:45:12.697Z,98646.78
2023-05-18T12:47:15.905Z,98651.22
2023-05-18T12:49:20.346Z,98632.19
2023-05-18T12:51:23.479Z,98629.16
2023-05-18T12:53:26.880Z,98636.22
2023-05-18T12:55:32.131Z,98628.00
2023-05-18T12:57:41.835Z,98634.25
2023-05-18T12:59:51.008Z,98633.94
2023-05-18T13:01:54.891Z,98647.03
2023-05-18T13:03:59.355Z,98637.31
2023-05-18T13:06:06.592Z,98627.31
2023-05-18T13:08:09.943Z,98629.28
2023-05-18T13:10:17.872Z,98618.16
2023-05-18T13:12:36.712Z,98627.59
2023-05-18T13:14:43.428Z,98614.66
2023-05-18T13:16:46.964Z,98624.97
2023-05-18T13:18:57.455Z,98611.50
2023-05-18T13:21:00.763Z,98617.75
2023-05-18T13:23:04.871Z,98622.34
2023-05-18T13:25:09.159Z,98615.25
2023-05-18T13:27:16.310Z,98623.19
2023-05-18T13:29:19.396Z,98626.25
2023-05-18T13:31:25.111Z,98615.81
2023-05-18T13:33:28.384Z,98617.00
2023-05-18T13:35:31.646Z,98618.13
2023-05-18T13:37:34.912Z,98632.03
2023-05-18T13:39:37.901Z,98623.25
2023-05-18T13:41:41.036Z,98615.44
2023-05-18T13:43:45.616Z,98620.59
2023-05-18T13:45:48.942Z,98622.00
2023-05-18T13:47:54.613Z,98606.28
2023-05-18T13:49:57.664Z,98614.78
2023-05-18T13:52:01.172Z,98617.81
2023-05-18T13:54:07.867Z,98613.06
2023-05-18T13:56:10.905Z,98614.16
2023-05-18T13:58:13.948Z,98606.47
2023-05-18T14:00:18.038Z,98604.72
2023-05-18T14:02:21.250Z,98601.41
2023-05-18T14:04:25.785Z,98590.53
2023-05-18T14:06:28.858Z,98595.28
2023-05-18T14:08:31.991Z,98596.81
2023-05-18T14:10:35.045Z,98587.44
2023-05-18T14:12:38.139Z,98586.94
2023-05-18T14:14:43.155Z,98587.66
2023-05-18T14:16:46.443Z,98572.09
2023-05-18T14:18:49.558Z,98571.84
2023-05-18T14:20:53.963Z,98570.47
2023-05-18T14:22:57.011Z,98574.53
2023-05-18T14:25:00.931Z,98584.81
2023-05-18T14:27:04.250Z,98567.28
2023-05-18T14:29:07.360Z,98563.69
2023-05-18T14:31:10.605Z,98566.03
2023-05-18T14:33:13.855Z,98570.09
2023-05-18T14:35:17.022Z,98569.81
2023-05-18T14:37:21.364Z,98562.94
2023-05-18T14:39:24.415Z,98573.66
2023-05-18T14:41:27.549Z,98578.81
2023-05-18T14:43:30.711Z,98570.47
2023-05-18T14:45:33.793Z,98566.44
2023-05-18T14:47:36.882Z,98566.16
2023-05-18T14:49:40.005Z,98564.78
2023-05-18T14:51:43.445Z,98570.31
2023-05-18T14:53:47.865Z,98567.53
2023-05-18T14:55:51.036Z,98562.09
2023-05-18T14:57:54.088Z,98561.94
2023-05-18T14:59:58.252Z,98560.50
2023-05-18T15:02:01.563Z,98560.75
2023-05-18T15:04:04.825Z,98566.97
2023-05-18T15:06:08.123Z,98570.38
2023-05-18T15:08:11.158Z,98566.75
2023-05-18T15:10:15.776Z,98572.34
2023-05-18T15:12:19.766Z,98565.44
2023-05-18T15:14:22.924Z,98566.44
2023-05-18T15:16:26.048Z,98561.44
2023-05-18T15:18:29.463Z,98564.38
2023-05-18T15:20:32.976Z,98571.59
2023-05-18T15:22:38.202Z,98563.69
2023-05-18T15:24:41.519Z,98562.97
2023-05-18T15:26:46.190Z,98562.56
2023-05-18T15:28:50.564Z,98567.41
2023-05-18T15:30:54.466Z,98562.09
2023-05-18T15:32:57.773Z,98564.19
2023-05-18T15:35:00.842Z,98555.69
2023-05-18T15:37:03.896Z,98559.00
2023-05-18T15:39:06.869Z,98554.63
2023-05-18T15:41:11.528Z,98563.66
2023-05-18T15:43:16.026Z,98561.16
2023-05-18T15:45:19.127Z,98567.41
2023-05-18T15:47:22.333Z,98564.13
2023-05-18T15:49:25.546Z,98559.00
2023-05-18T15:51:28.775Z,98557.53
2023-05-18T15:53:32.358Z,98560.47
2023-05-18T15:55:35.425Z,98559.22
2023-05-18T15:57:38.631Z,98562.56
2023-05-18T15:59:43.707Z,98547.81
2023-05-18T16:01:49.656Z,98552.00
2023-05-18T16:03:52.969Z,98556.03
2023-05-18T16:05:56.182Z,98545.75
2023-05-18T16:07:59.613Z,98546.81
2023-05-18T16:10:02.712Z,98546.53
2023-05-18T16:12:06.481Z,98547.25
2023-05-18T16:14:09.538Z,98544.31
2023-05-18T16:16:14.208Z,98552.66
2023-05-18T16:18:17.419Z,98549.59
2023-05-18T16:20:21.140Z,98549.19
2023-05-18T16:22:24.217Z,98544.78
2023-05-18T16:24:27.351Z,98542.97
2023-05-18T16:26:30.409Z,98538.25
2023-05-18T16:28:33.524Z,98540.91
2023-05-18T16:30:36.574Z,98547.44
2023-05-18T16:32:43.189Z,98544.78
2023-05-18T16:34:46.382Z,98549.78
2023-05-18T16:36:49.547Z,98550.59
2023-05-18T16:38:52.629Z,98541.41
2023-05-18T16:40:55.691Z,98543.09
2023-05-18T16:42:58.779Z,98541.41
2023-05-18T16:45:01.811Z,98552.94
2023-05-18T16:47:05.039Z,98550.59
2023-05-18T16:49:09.452Z,98550.47
2023-05-18T16:51:12.528Z,98542.16
2023-05-18T16:53:15.627Z,98549.25
2023-05-18T16:55:18.772Z,98553.97
2023-05-18T16:57:22.214Z,98548.81
2023-05-18T16:59:25.621Z,98544.50
2023-05-18T17:01:30.760Z,98544.66
2023-05-18T17:03:34.363Z,98547.28
2023-05-18T17:05:39.304Z,98550.19
2023-05-18T17:07:42.351Z,98553.94
2023-05-18T17:09:45.499Z,98549.94
2023-05-18T17:11:48.585Z,98554.78
2023-05-18T17:13:52.173Z,98556.44
2023-05-18T17:15:55.334Z,98552.00
2023-05-18T17:17:58.436Z,98554.06
2023-05-18T17:20:02.131Z,98556.56
2023-05-18T17:22:09.480Z,98564.78
2023-05-18T17:24:12.721Z,98553.78
2023-05-18T17:26:15.864Z,98559.06
2023-05-18T17:28:18.952Z,98556.16
2023-05-18T17:30:22.161Z,98557.97
2023-05-18T17:32:25.196Z,98563.41
2023-05-18T17:34:30.512Z,98560.34
2023-05-18T17:36:33.606Z,98559.22
2023-05-18T17:38:38.035Z,98555.91
2023-05-18T17:40:41.376Z,98561.19
2023-05-18T17:42:44.415Z,98562.41
2023-05-18T17:44:47.606Z,98560.03
2023-05-18T17:46:50.966Z,98562.81
2023-05-18T17:48:54.069Z,98564.50
2023-05-18T17:50:57.245Z,98562.56
2023-05-18T17:53:00.327Z,98564.09
2023-05-18T17:55:05.043Z,98564.38
2023-05-18T17:57:08.063Z,98567.97
2023-05-18T17:59:11.184Z,98564.78
2023-05-18T18:01:14.394Z,98567.00
2023-05-18T18:03:20.445Z,98571.72
2023-05-18T18:05:23.720Z,98573.66
2023-05-18T18:07:26.889Z,98569.63
2023-05-18T18:09:30.142Z,98574.59
2023-05-18T18:11:34.825Z,98571.41
2023-05-18T18:13:38.187Z,98569.78
2023-05-18T18:15:41.372Z,98563.09
2023-05-18T18:17:44.740Z,98575.31
2023-05-18T18:19:47.902Z,98569.63
2023-05-18T18:21:51.174Z,98566.16
2023-05-18T18:23:54.299Z,98569.91
2023-05-18T18:25:57.330Z,98573.50
2023-05-18T18:28:01.844Z,98576.13
2023-05-18T18:30:05.667Z,98573.06
2023-05-18T18:32:09.021Z,98567.78
2023-05-18T18:34:12.480Z,98565.97
2023-05-18T18:36:15.956Z,98575.81
2023-05-18T18:38:19.083Z,98576.06
2023-05-18T18:40:22.309Z,98571.06
2023-05-18T18:42:25.888Z,98573.56
2023-05-18T18:44:30.397Z,98577.41
2023-05-18T18:46:33.605Z,98579.63
2023-05-18T18:48:37.225Z,98577.09
2023-05-18T18:50:40.364Z,98580.69
2023-05-18T18:52:43.462Z,98582.22
2023-05-18T18:54:46.628Z,98583.28
2023-05-18T18:56:50.177Z,98580.91
2023-05-18T18:58:53.339Z,98581.19
2023-05-18T19:00:57.841Z,98581.72
2023-05-18T19:03:01.254Z,98587.25
2023-05-18T19:05:05.514Z,98585.00
2023-05-18T19:07:08.840Z,98595.81
2023-05-18T19:09:11.936Z,98593.56
2023-05-18T19:11:15.095Z,98598.53
2023-05-18T19:13:18.296Z,98599.03
2023-05-18T19:15:22.331Z,98600.41
2023-05-18T19:17:27.039Z,98603.56
2023-05-18T19:19:32.603Z,98611.00
2023-05-18T19:21:36.088Z,98611.63
2023-05-18T19:23:39.330Z,98606.38
2023-05-18T19:25:42.518Z,98607.75
2023-05-18T19:27:46.109Z,98613.63
2023-05-18T19:29:49.495Z,98620.50
2023-05-18T19:31:54.618Z,98610.56
2023-05-18T19:34:00.007Z,98619.81
2023-05-18T19:36:04.218Z,98618.75
2023-05-18T19:38:07.397Z,98625.63
2023-05-18T19:40:10.661Z,98613.09
2023-05-18T19:42:13.832Z,98626.59
2023-05-18T19:44:17.008Z,98630.44
2023-05-18T19:46:20.480Z,98623.97
2023-05-18T19:48:23.890Z,98627.72
2023-05-18T19:50:28.520Z,98631.66
2023-05-18T19:52:32.232Z,98627.72
2023-05-18T19:54:35.984Z,98621.16
2023-05-18T19:56:39.432Z,98631.22
2023-05-18T19:58:42.842Z,98629.78
2023-05-18T20:00:46.073Z,98631.94
2023-05-18T20:02:49.302Z,98637.69
2023-05-18T20:04:53.405Z,98625.03
2023-05-18T20:06:59.993Z,98637.66
2023-05-18T20:09:03.879Z,98629.41
2023-05-18T20:11:07.321Z,98629.88
2023-05-18T20:13:10.680Z,98631.22
2023-05-18T20:15:14.266Z,98635.03
2023-05-18T20:17:17.372Z,98629.78
2023-05-18T20:19:22.172Z,98638.81
2023-05-18T20:21:25.686Z,98637.41
2023-05-18T20:23:30.205Z,98635.13
2023-05-18T20:25:35.334Z,98636.44
2023-05-18T20:27:38.673Z,98637.53
2023-05-18T20:29:41.750Z,98640.50
2023-05-18T20:31:46.244Z,98635.59
2023-05-18T20:33:49.578Z,98636.78
2023-05-18T20:35:52.983Z,98636.78
2023-05-18T20:37:57.560Z,98639.41
2023-05-18T20:40:02.725Z,98638.56
2023-05-18T20:42:06.700Z,98639.41
2023-05-18T20:44:11.345Z,98637.72
2023-05-18T20:46:14.603Z,98639.28
2023-05-18T20:48:24.668Z,98635.94
2023-05-18T20:50:27.851Z,98635.09
2023-05-18T20:52:31.217Z,98636.88
2023-05-18T20:54:34.470Z,98637.13
2023-05-18T20:56:39.041Z,98628.88
2023-05-18T20:58:49.691Z,98632.06
2023-05-18T21:00:55.559Z,98633.13
2023-05-18T21:02:58.775Z,98637.69
2023-05-18T21:05:02.788Z,98634.31
2023-05-18T21:07:06.272Z,98633.59
2023-05-18T21:09:09.610Z,98633.72
2023-05-18T21:11:12.696Z,98637.53
2023-05-18T21:13:17.244Z,98639.28
2023-05-18T21:15:20.464Z,98631.53
2023-05-18T21:17:23.630Z,98632.41
2023-05-18T21:19:26.826Z,98637.66
2023-05-18T21:21:29.956Z,98631.66
2023-05-18T21:23:33.100Z,98636.19
2023-05-18T21:25:36.180Z,98627.72
2023-05-18T21:27:39.432Z,98628.88
2023-05-18T21:29:44.118Z,98629.34
2023-05-18T21:31:48.806Z,98631.47
2023-05-18T21:33:52.714Z,98632.41
2023-05-18T21:35:55.913Z,98633.97
2023-05-18T21:37:58.967Z,98631.47
2023-05-18T21:40:02.467Z,98636.28
2023-05-18T21:42:05.988Z,98641.06
2023-05-18T21:44:09.440Z,98636.31
2023-05-18T21:46:13.921Z,98639.53
2023-05-18T21:48:17.007Z,98640.38
2023-05-18T21:50:20.064Z,98639.53
2023-05-18T21:52:23.486Z,98631.44
2023-05-18T21:54:26.506Z,98636.59
2023-05-18T21:56:30.118Z,98638.84
2023-05-18T21:58:33.140Z,98638.38
2023-05-18T22:00:37.672Z,98638.97
2023-05-18T22:02:42.319Z,98646.16
2023-05-18T22:04:45.739Z,98641.84
2023-05-18T22:06:48.802Z,98641.25
2023-05-18T22:08:52.799Z,98644.31
2023-05-18T22:10:55.927Z,98644.22
2023-05-18T22:12:58.971Z,98645.88
2023-05-18T22:15:02.122Z,98641.25
2023-05-18T22:17:06.607Z,98637.91
2023-05-18T22:19:11.165Z,98635.88
2023-05-18T22:21:14.417Z,98639.56
2023-05-18T22:23:17.469Z,98645.53
2023-05-18T22:25:20.662Z,98641.47
2023-05-18T22:27:23.800Z,98642.31
2023-05-18T22:29:27.198Z,98635.72
2023-05-18T22:31:30.522Z,98634.50
2023-05-18T22:33:33.638Z,98632.84
2023-05-18T22:35:38.089Z,98635.38
2023-05-18T22:37:41.247Z,98636.41
2023-05-18T22:39:44.481Z,98628.66
2023-05-18T22:41:47.587Z,98623.53
2023-05-18T22:43:50.619Z,98619.56
2023-05-18T22:45:54.150Z,98626.81
2023-05-18T22:47:57.286Z,98621.59
2023-05-18T22:50:00.451Z,98626.81
2023-05-18T22:52:06.710Z,98621.31
2023-05-18T22:54:09.881Z,98622.56
2023-05-18T22:56:13.066Z,98620.91
2023-05-18T22:58:16.217Z,98613.50
2023-05-18T23:00:19.523Z,98617.06
2023-05-18T23:02:22.555Z,98612.97
2023-05-18T23:04:25.923Z,98621.06
2023-05-18T23:06:31.618Z,98617.13
2023-05-18T23:08:37.116Z,98618.63
2023-05-18T23:10:41.949Z,98616.72
2023-05-18T23:12:45.757Z,98610.47
2023-05-18T23:14:49.733Z,98609.63
2023-05-18T23:16:53.620Z,98607.13
2023-05-18T23:18:58.711Z,98611.03
2023-05-18T23:21:02.768Z,98609.97
2023-05-18T23:23:05.863Z,98614.69
2023-05-18T23:25:11.146Z,98612.19
2023-05-18T23:27:14.200Z,98607.28
2023-05-18T23:29:17.344Z,98610.53
2023-05-18T23:31:22.131Z,98613.59
2023-05-18T23:33:26.014Z,98607.41
2023-05-18T23:35:30.125Z,98605.72
2023-05-18T23:37:33.654Z,98609.31
2023-05-18T23:39:37.069Z,98604.53
2023-05-18T23:41:41.594Z,98610.91
2023-05-18T23:43:45.342Z,98610.28
2023-05-18T23:45:49.065Z,98604.34
2023-05-18T23:47:53.148Z,98612.31
2023-05-18T23:49:57.046Z,98607.56
2023-05-18T23:52:03.184Z,98605.38
2023-05-18T23:54:07.477Z,98601.41
2023-05-18T23:56:12.310Z,98614.38
2023-05-18T23:58:17.304Z,98612.72
